createdAt,value
2018-01-01T00:02:17.246Z,99178.84
2018-01-01T00:04:52.025Z,99184.74
2018-01-01T00:07:26.925Z,99182.88
2018-01-01T00:10:01.727Z,99204.45
2018-01-01T00:12:36.486Z,99193.95
2018-01-01T00:15:11.303Z,99195.55
2018-01-01T00:17:46.070Z,99205.05
2018-01-01T00:20:21.031Z,99188.98
2018-01-01T00:22:55.994Z,99190.38
2018-01-01T00:25:30.865Z,99190.03
2018-01-01T00:28:05.746Z,99195.02
2018-01-01T00:30:40.546Z,99182.73
2018-01-01T00:33:15.530Z,99189.89
2018-01-01T00:35:50.373Z,99190.89
2018-01-01T00:38:25.281Z,99192.80
2018-01-01T00:41:00.039Z,99184.16
2018-01-01T00:43:34.641Z,99174.96
2018-01-01T00:46:09.288Z,99175.92
2018-01-01T00:48:44.046Z,99191.16
2018-01-01T00:51:18.851Z,99187.20
2018-01-01T00:53:53.661Z,99193.58
2018-01-01T00:56:28.525Z,99208.28
2018-01-01T00:59:03.753Z,99220.52
2018-01-01T01:01:38.558Z,99223.59
2018-01-01T01:04:13.407Z,99219.45
2018-01-01T01:06:48.327Z,99217.20
2018-01-01T01:09:23.100Z,99211.58
2018-01-01T01:11:57.785Z,99207.19
2018-01-01T01:14:32.740Z,99208.62
2018-01-01T01:17:07.665Z,99205.31
2018-01-01T01:19:42.529Z,99214.38
2018-01-01T01:22:17.685Z,99212.41
2018-01-01T01:24:52.554Z,99211.67
2018-01-01T01:27:27.359Z,99214.92
2018-01-01T01:30:02.057Z,99221.75
2018-01-01T01:32:36.921Z,99225.12
2018-01-01T01:35:11.774Z,99223.42
2018-01-01T01:37:46.526Z,99234.82
2018-01-01T01:40:21.285Z,99251.02
2018-01-01T01:42:56.156Z,99235.20
2018-01-01T01:45:31.038Z,99233.67
2018-01-01T01:48:05.903Z,99240.36
2018-01-01T01:50:40.880Z,99243.86
2018-01-01T01:53:15.627Z,99239.66
2018-01-01T01:55:50.429Z,99260.53
2018-01-01T01:58:25.183Z,99247.22
2018-01-01T02:00:59.991Z,99252.67
2018-01-01T02:03:34.622Z,99250.42
2018-01-01T02:06:09.328Z,99249.69
2018-01-01T02:08:44.089Z,99253.66
2018-01-01T02:11:18.784Z,99262.80
2018-01-01T02:13:53.835Z,99238.52
2018-01-01T02:16:28.582Z,99236.63
2018-01-01T02:19:03.350Z,99224.42
2018-01-01T02:21:37.817Z,99235.44
2018-01-01T02:24:12.878Z,99242.37
2018-01-01T02:26:47.614Z,99239.13
2018-01-01T02:29:22.402Z,99235.70
2018-01-01T02:31:56.890Z,99218.32
2018-01-01T02:34:31.522Z,99235.73
2018-01-01T02:37:06.526Z,99229.25
2018-01-01T02:39:41.028Z,99235.53
2018-01-01T02:42:16.018Z,99209.70
2018-01-01T02:44:50.683Z,99219.60
2018-01-01T02:47:25.225Z,99227.94
2018-01-01T02:50:00.454Z,99227.66
2018-01-01T02:52:35.188Z,99227.27
2018-01-01T02:55:10.133Z,99221.89
2018-01-01T02:57:45.071Z,99229.52
2018-01-01T03:00:19.734Z,99227.74
2018-01-01T03:02:54.530Z,99237.87
2018-01-01T03:05:29.326Z,99221.83
2018-01-01T03:08:04.043Z,99220.56
2018-01-01T03:10:38.715Z,99226.28
2018-01-01T03:13:13.399Z,99213.55
2018-01-01T03:15:48.264Z,99210.24
2018-01-01T03:18:23.070Z,99216.69
2018-01-01T03:20:57.913Z,99215.83
2018-01-01T03:23:32.325Z,99205.70
2018-01-01T03:26:07.354Z,99219.38
2018-01-01T03:28:42.115Z,99231.75
2018-01-01T03:31:16.911Z,99223.27
2018-01-01T03:33:51.681Z,99224.95
2018-01-01T03:36:26.509Z,99211.77
2018-01-01T03:39:01.302Z,99237.47
2018-01-01T03:41:36.051Z,99218.36
2018-01-01T03:44:10.977Z,99211.48
2018-01-01T03:46:45.921Z,99219.91
2018-01-01T03:49:20.806Z,99217.30
2018-01-01T03:51:55.797Z,99219.70
2018-01-01T03:54:30.353Z,99214.02
2018-01-01T03:57:05.110Z,99210.80
2018-01-01T03:59:40.061Z,99208.58
2018-01-01T04:02:14.821Z,99223.78
2018-01-01T04:04:50.226Z,99214.11
2018-01-01T04:07:24.321Z,99230.07
2018-01-01T04:09:59.357Z,99217.50
2018-01-01T04:12:34.237Z,99209.34
2018-01-01T04:15:08.943Z,99214.37
2018-01-01T04:17:43.814Z,99222.30
2018-01-01T04:20:18.628Z,99212.00
2018-01-01T04:22:53.645Z,99213.14
2018-01-01T04:25:28.333Z,99213.50
2018-01-01T04:28:03.228Z,99213.46
2018-01-01T04:30:37.734Z,99221.36
2018-01-01T04:33:12.689Z,99230.13
2018-01-01T04:35:47.506Z,99230.35
2018-01-01T04:38:22.169Z,99250.28
2018-01-01T04:40:57.065Z,99254.75
2018-01-01T04:43:31.723Z,99247.76
2018-01-01T04:46:06.680Z,99243.47
2018-01-01T04:48:41.434Z,99246.14
2018-01-01T04:51:16.131Z,99234.92
2018-01-01T04:53:50.927Z,99230.27
2018-01-01T04:56:25.818Z,99222.77
2018-01-01T04:59:00.455Z,99234.02
2018-01-01T05:01:35.115Z,99231.03
2018-01-01T05:04:10.137Z,99237.55
2018-01-01T05:06:44.861Z,99230.25
2018-01-01T05:09:19.735Z,99246.51
2018-01-01T05:11:54.404Z,99247.27
2018-01-01T05:14:29.101Z,99271.77
2018-01-01T05:17:03.882Z,99269.16
2018-01-01T05:19:38.682Z,99256.36
2018-01-01T05:22:13.762Z,99271.84
2018-01-01T05:24:48.942Z,99289.55
2018-01-01T05:27:23.515Z,99300.42
2018-01-01T05:29:58.630Z,99311.49
2018-01-01T05:32:33.393Z,99321.55
2018-01-01T05:35:08.111Z,99311.19
2018-01-01T05:37:43.051Z,99328.16
2018-01-01T05:40:18.385Z,99332.17
2018-01-01T05:42:53.586Z,99338.73
2018-01-01T05:45:28.777Z,99335.70
2018-01-01T05:48:03.714Z,99331.59
2018-01-01T05:50:38.508Z,99339.67
2018-01-01T05:53:13.507Z,99342.07
2018-01-01T05:55:48.164Z,99355.03
2018-01-01T05:58:23.178Z,99364.77
2018-01-01T06:00:57.842Z,99365.25
2018-01-01T06:03:32.528Z,99362.35
2018-01-01T06:06:07.019Z,99378.94
2018-01-01T06:08:41.866Z,99374.81
2018-01-01T06:11:16.780Z,99381.19
2018-01-01T06:13:51.947Z,99373.91
2018-01-01T06:16:26.837Z,99391.58
2018-01-01T06:19:01.753Z,99411.38
2018-01-01T06:21:36.687Z,99405.19
2018-01-01T06:24:11.567Z,99410.53
2018-01-01T06:26:46.448Z,99423.34
2018-01-01T06:29:21.343Z,99412.45
2018-01-01T06:31:56.187Z,99423.08
2018-01-01T06:34:31.099Z,99429.77
2018-01-01T06:37:05.790Z,99438.86
2018-01-01T06:39:40.483Z,99448.20
2018-01-01T06:42:15.181Z,99452.91
2018-01-01T06:44:49.934Z,99450.81
2018-01-01T06:47:24.670Z,99457.36
2018-01-01T06:49:59.342Z,99462.58
2018-01-01T06:52:34.334Z,99469.86
2018-01-01T06:55:09.117Z,99475.47
2018-01-01T06:57:43.767Z,99473.70
2018-01-01T07:00:18.483Z,99476.55
2018-01-01T07:02:53.371Z,99473.23
2018-01-01T07:05:28.039Z,99479.48
2018-01-01T07:08:02.922Z,99487.09
2018-01-01T07:10:37.770Z,99488.00
2018-01-01T07:13:12.616Z,99501.45
2018-01-01T07:15:47.575Z,99509.52
2018-01-01T07:18:22.378Z,99507.13
2018-01-01T07:20:57.154Z,99502.94
2018-01-01T07:23:31.829Z,99507.36
2018-01-01T07:26:06.574Z,99504.86
2018-01-01T07:28:41.493Z,99516.23
2018-01-01T07:31:16.339Z,99527.20
2018-01-01T07:33:50.958Z,99533.35
2018-01-01T07:36:25.356Z,99526.59
2018-01-01T07:39:00.538Z,99547.35
2018-01-01T07:41:35.331Z,99549.28
2018-01-01T07:44:10.301Z,99552.26
2018-01-01T07:46:45.136Z,99563.80
2018-01-01T07:49:20.135Z,99567.75
2018-01-01T07:51:55.057Z,99576.36
2018-01-01T07:54:30.022Z,99581.44
2018-01-01T07:57:04.821Z,99593.02
2018-01-01T07:59:39.857Z,99593.86
2018-01-01T08:02:14.814Z,99601.06
2018-01-01T08:04:49.502Z,99603.68
2018-01-01T08:07:24.769Z,99602.66
2018-01-01T08:09:59.407Z,99613.64
2018-01-01T08:12:34.328Z,99624.89
2018-01-01T08:15:09.375Z,99627.36
2018-01-01T08:17:45.903Z,99630.17
2018-01-01T08:20:21.072Z,99636.14
2018-01-01T08:22:55.994Z,99647.28
2018-01-01T08:25:31.245Z,99650.25
2018-01-01T08:28:06.022Z,99641.98
2018-01-01T08:30:40.258Z,99644.97
2018-01-01T08:33:15.020Z,99647.27
2018-01-01T08:35:49.801Z,99643.50
2018-01-01T08:38:25.063Z,99660.42
2018-01-01T08:41:00.048Z,99664.45
2018-01-01T08:43:35.062Z,99662.17
2018-01-01T08:46:09.797Z,99669.80
2018-01-01T08:48:44.413Z,99673.92
2018-01-01T08:51:19.722Z,99662.84
2018-01-01T08:53:54.532Z,99678.88
2018-01-01T08:56:28.896Z,99688.22
2018-01-01T08:59:03.859Z,99676.23
2018-01-01T09:01:38.898Z,99682.63
2018-01-01T09:04:13.514Z,99676.67
2018-01-01T09:06:48.375Z,99689.76
2018-01-01T09:09:23.886Z,99700.34
2018-01-01T09:11:59.126Z,99704.69
2018-01-01T09:14:34.162Z,99696.52
2018-01-01T09:17:08.940Z,99702.25
2018-01-01T09:19:43.658Z,99696.59
2018-01-01T09:22:18.419Z,99710.48
2018-01-01T09:24:53.501Z,99698.30
2018-01-01T09:27:28.383Z,99691.07
2018-01-01T09:30:03.574Z,99705.72
2018-01-01T09:32:38.319Z,99714.30
2018-01-01T09:35:13.202Z,99702.98
2018-01-01T09:37:48.204Z,99704.45
2018-01-01T09:40:22.709Z,99708.20
2018-01-01T09:42:57.930Z,99713.25
2018-01-01T09:45:32.532Z,99698.25
2018-01-01T09:48:07.294Z,99710.30
2018-01-01T09:50:42.313Z,99704.58
2018-01-01T09:53:17.576Z,99706.81
2018-01-01T09:55:52.278Z,99700.25
2018-01-01T09:58:27.347Z,99695.81
2018-01-01T10:01:02.239Z,99705.70
2018-01-01T10:03:37.207Z,99700.11
2018-01-01T10:06:11.992Z,99699.95
2018-01-01T10:08:46.672Z,99688.64
2018-01-01T10:11:21.957Z,99683.27
2018-01-01T10:13:56.439Z,99692.74
2018-01-01T10:16:31.436Z,99689.02
2018-01-01T10:19:06.103Z,99691.61
2018-01-01T10:21:40.887Z,99701.52
2018-01-01T10:24:15.987Z,99695.78
2018-01-01T10:26:50.666Z,99686.46
2018-01-01T10:29:25.389Z,99689.53
2018-01-01T10:32:00.330Z,99685.64
2018-01-01T10:34:35.392Z,99680.41
2018-01-01T10:37:10.308Z,99684.70
2018-01-01T10:39:44.715Z,99679.33
2018-01-01T10:42:19.546Z,99674.33
2018-01-01T10:44:54.655Z,99652.63
2018-01-01T10:47:29.738Z,99670.38
2018-01-01T10:50:04.671Z,99665.30
2018-01-01T10:52:39.326Z,99659.70
2018-01-01T10:55:13.752Z,99658.02
2018-01-01T10:57:48.961Z,99657.37
2018-01-01T11:00:23.586Z,99662.84
2018-01-01T11:02:58.628Z,99650.66
2018-01-01T11:05:33.444Z,99662.26
2018-01-01T11:08:08.405Z,99641.86
2018-01-01T11:10:43.209Z,99638.22
2018-01-01T11:13:18.123Z,99645.48
2018-01-01T11:15:52.955Z,99650.25
2018-01-01T11:18:28.039Z,99636.50
2018-01-01T11:21:02.975Z,99629.21
2018-01-01T11:23:37.883Z,99634.95
2018-01-01T11:26:12.686Z,99627.88
2018-01-01T11:28:47.466Z,99634.03
2018-01-01T11:31:22.392Z,99623.75
2018-01-01T11:33:57.199Z,99620.72
2018-01-01T11:36:32.134Z,99623.06
2018-01-01T11:39:07.146Z,99618.38
2018-01-01T11:41:42.026Z,99613.20
2018-01-01T11:44:17.350Z,99609.46
2018-01-01T11:46:52.254Z,99614.33
2018-01-01T11:49:27.366Z,99602.78
2018-01-01T11:52:01.871Z,99613.76
2018-01-01T11:54:37.062Z,99593.27
2018-01-01T11:57:11.552Z,99606.21
2018-01-01T11:59:45.967Z,99596.79
2018-01-01T12:02:20.999Z,99600.31
2018-01-01T12:04:55.575Z,99601.80
2018-01-01T12:07:30.489Z,99599.82
2018-01-01T12:10:05.540Z,99598.27
2018-01-01T12:12:40.485Z,99606.87
2018-01-01T12:15:15.818Z,99584.95
2018-01-01T12:17:50.645Z,99597.39
2018-01-01T12:20:25.814Z,99585.88
2018-01-01T12:23:00.946Z,99585.00
2018-01-01T12:25:35.837Z,99580.86
2018-01-01T12:28:10.630Z,99571.63
2018-01-01T12:30:45.753Z,99562.27
2018-01-01T12:33:20.575Z,99560.78
2018-01-01T12:35:55.530Z,99566.81
2018-01-01T12:38:30.702Z,99573.09
2018-01-01T12:41:05.467Z,99576.25
2018-01-01T12:43:40.322Z,99563.92
2018-01-01T12:46:15.222Z,99559.47
2018-01-01T12:48:50.035Z,99556.34
2018-01-01T12:51:24.982Z,99557.59
2018-01-01T12:53:59.938Z,99547.45
2018-01-01T12:56:34.947Z,99551.55
2018-01-01T12:59:09.682Z,99543.23
2018-01-01T13:01:44.338Z,99539.72
2018-01-01T13:04:19.267Z,99540.55
2018-01-01T13:06:54.202Z,99536.27
2018-01-01T13:09:29.184Z,99538.63
2018-01-01T13:12:04.003Z,99536.27
2018-01-01T13:14:38.429Z,99534.22
2018-01-01T13:17:13.305Z,99533.86
2018-01-01T13:19:47.983Z,99537.52
2018-01-01T13:22:22.970Z,99535.42
2018-01-01T13:24:57.287Z,99525.66
2018-01-01T13:27:32.421Z,99522.35
2018-01-01T13:30:07.385Z,99528.35
2018-01-01T13:32:42.183Z,99523.70
2018-01-01T13:35:16.938Z,99527.44
2018-01-01T13:37:51.811Z,99509.22
2018-01-01T13:40:26.990Z,99513.83
2018-01-01T13:43:02.054Z,99511.88
2018-01-01T13:45:36.845Z,99504.81
2018-01-01T13:48:11.611Z,99500.45
2018-01-01T13:50:46.428Z,99508.71
2018-01-01T13:53:21.035Z,99506.86
2018-01-01T13:55:55.926Z,99497.09
2018-01-01T13:58:30.748Z,99504.74
2018-01-01T14:01:05.517Z,99498.09
2018-01-01T14:03:40.307Z,99495.55
2018-01-01T14:06:14.815Z,99500.39
2018-01-01T14:08:49.846Z,99499.70
2018-01-01T14:11:24.469Z,99497.06
2018-01-01T14:13:59.990Z,99494.31
2018-01-01T14:16:34.747Z,99502.91
2018-01-01T14:19:09.506Z,99501.92
2018-01-01T14:21:43.970Z,99503.40
2018-01-01T14:24:19.042Z,99506.73
2018-01-01T14:26:53.815Z,99503.65
2018-01-01T14:29:28.815Z,99503.58
2018-01-01T14:32:03.739Z,99508.53
2018-01-01T14:34:39.031Z,99505.37
2018-01-01T14:37:14.104Z,99505.02
2018-01-01T14:39:48.610Z,99502.77
2018-01-01T14:42:23.479Z,99497.63
2018-01-01T14:44:58.806Z,99490.14
2018-01-01T14:47:33.843Z,99489.06
2018-01-01T14:50:09.063Z,99491.10
2018-01-01T14:52:43.824Z,99491.45
2018-01-01T14:55:18.824Z,99491.60
2018-01-01T14:57:53.680Z,99476.34
2018-01-01T15:00:28.355Z,99481.30
2018-01-01T15:03:03.355Z,99478.19
2018-01-01T15:05:38.278Z,99472.40
2018-01-01T15:08:13.182Z,99473.48
2018-01-01T15:10:47.981Z,99482.27
2018-01-01T15:13:22.798Z,99464.22
2018-01-01T15:15:57.997Z,99462.02
2018-01-01T15:18:32.764Z,99461.56
2018-01-01T15:21:07.718Z,99460.98
2018-01-01T15:23:42.548Z,99453.92
2018-01-01T15:26:17.638Z,99454.61
2018-01-01T15:28:52.866Z,99456.94
2018-01-01T15:31:27.698Z,99460.55
2018-01-01T15:34:02.817Z,99458.67
2018-01-01T15:36:37.519Z,99454.97
2018-01-01T15:39:12.805Z,99458.02
2018-01-01T15:41:47.579Z,99456.46
2018-01-01T15:44:22.857Z,99447.88
2018-01-01T15:46:58.329Z,99451.68
2018-01-01T15:49:33.347Z,99456.67
2018-01-01T15:52:08.425Z,99461.23
2018-01-01T15:54:43.606Z,99459.75
2018-01-01T15:57:18.465Z,99448.30
2018-01-01T15:59:53.359Z,99451.59
2018-01-01T16:02:28.330Z,99452.03
2018-01-01T16:05:02.937Z,99456.28
2018-01-01T16:07:37.962Z,99448.56
2018-01-01T16:10:12.839Z,99446.38
2018-01-01T16:12:47.767Z,99441.98
2018-01-01T16:15:22.554Z,99433.38
2018-01-01T16:17:57.317Z,99431.41
2018-01-01T16:20:31.939Z,99432.38
2018-01-01T16:23:06.808Z,99427.92
2018-01-01T16:25:41.799Z,99423.21
2018-01-01T16:28:16.549Z,99424.67
2018-01-01T16:30:51.358Z,99415.88
2018-01-01T16:33:26.257Z,99419.13
2018-01-01T16:36:00.878Z,99426.33
2018-01-01T16:38:36.074Z,99422.79
2018-01-01T16:41:10.961Z,99421.34
2018-01-01T16:43:46.046Z,99417.13
2018-01-01T16:46:20.778Z,99423.00
2018-01-01T16:48:55.843Z,99423.72
2018-01-01T16:51:30.811Z,99418.74
2018-01-01T16:54:05.558Z,99413.52
2018-01-01T16:56:40.682Z,99418.78
2018-01-01T16:59:15.650Z,99421.23
2018-01-01T17:01:50.398Z,99420.42
2018-01-01T17:04:25.298Z,99411.53
2018-01-01T17:07:00.746Z,99415.86
2018-01-01T17:09:35.739Z,99415.58
2018-01-01T17:12:10.454Z,99409.91
2018-01-01T17:14:45.234Z,99404.65
2018-01-01T17:17:20.539Z,99403.24
2018-01-01T17:19:55.403Z,99394.42
2018-01-01T17:22:30.474Z,99385.86
2018-01-01T17:25:05.391Z,99383.79
2018-01-01T17:27:40.259Z,99378.65
2018-01-01T17:30:15.126Z,99343.86
2018-01-01T17:32:49.822Z,99367.87
2018-01-01T17:35:24.590Z,99368.35
2018-01-01T17:37:59.514Z,99374.36
2018-01-01T17:40:34.080Z,99376.37
2018-01-01T17:43:09.142Z,99376.37
2018-01-01T17:45:43.915Z,99378.88
2018-01-01T17:48:18.486Z,99376.67
2018-01-01T17:50:53.577Z,99380.30
2018-01-01T17:53:28.634Z,99378.41
2018-01-01T17:56:03.609Z,99376.61
2018-01-01T17:58:38.480Z,99368.66
2018-01-01T18:01:12.991Z,99369.41
2018-01-01T18:03:47.258Z,99368.15
2018-01-01T18:06:22.181Z,99367.17
2018-01-01T18:08:56.774Z,99365.00
2018-01-01T18:11:32.131Z,99368.22
2018-01-01T18:14:07.089Z,99365.66
2018-01-01T18:16:42.222Z,99375.22
2018-01-01T18:19:16.607Z,99369.34
2018-01-01T18:21:51.370Z,99369.64
2018-01-01T18:24:26.637Z,99367.80
2018-01-01T18:27:02.054Z,99370.66
2018-01-01T18:29:36.457Z,99365.52
2018-01-01T18:32:11.379Z,99369.03
2018-01-01T18:34:46.382Z,99368.42
2018-01-01T18:37:21.597Z,99365.67
2018-01-01T18:39:56.488Z,99369.45
2018-01-01T18:42:31.263Z,99365.91
2018-01-01T18:45:06.545Z,99368.63
2018-01-01T18:47:41.514Z,99367.91
2018-01-01T18:50:16.339Z,99368.84
2018-01-01T18:52:51.279Z,99367.80
2018-01-01T18:55:26.138Z,99356.75
2018-01-01T18:58:01.301Z,99355.42
2018-01-01T19:00:36.595Z,99360.01
2018-01-01T19:03:11.942Z,99356.09
2018-01-01T19:05:46.961Z,99356.17
2018-01-01T19:08:22.098Z,99352.87
2018-01-01T19:10:56.697Z,99350.08
2018-01-01T19:13:32.066Z,99353.73
2018-01-01T19:16:06.827Z,99357.86
2018-01-01T19:18:41.263Z,99343.75
2018-01-01T19:21:15.855Z,99345.41
2018-01-01T19:23:51.194Z,99348.98
2018-01-01T19:26:26.194Z,99351.61
2018-01-01T19:29:01.271Z,99348.20
2018-01-01T19:31:35.631Z,99351.93
2018-01-01T19:34:10.597Z,99349.46
2018-01-01T19:36:45.559Z,99348.80
2018-01-01T19:39:20.704Z,99350.19
2018-01-01T19:41:55.914Z,99346.65
2018-01-01T19:44:30.862Z,99351.95
2018-01-01T19:47:05.615Z,99358.24
2018-01-01T19:49:40.825Z,99358.13
2018-01-01T19:52:15.986Z,99350.78
2018-01-01T19:54:51.169Z,99355.09
2018-01-01T19:57:26.034Z,99347.02
2018-01-01T20:00:00.990Z,99345.52
2018-01-01T20:02:35.921Z,99348.34
2018-01-01T20:05:10.937Z,99350.06
2018-01-01T20:07:45.979Z,99355.34
2018-01-01T20:10:21.000Z,99354.50
2018-01-01T20:12:56.351Z,99356.57
2018-01-01T20:15:31.503Z,99361.37
2018-01-01T20:18:05.877Z,99355.91
2018-01-01T20:20:40.382Z,99354.94
2018-01-01T20:23:15.038Z,99362.62
2018-01-01T20:25:50.223Z,99362.80
2018-01-01T20:28:26.067Z,99358.44
2018-01-01T20:31:01.230Z,99362.42
2018-01-01T20:33:36.310Z,99365.47
2018-01-01T20:36:10.677Z,99363.80
2018-01-01T20:38:46.008Z,99362.36
2018-01-01T20:41:20.542Z,99363.16
2018-01-01T20:43:55.230Z,99363.42
2018-01-01T20:46:30.517Z,99359.95
2018-01-01T20:49:05.463Z,99366.96
2018-01-01T20:51:40.076Z,99364.83
2018-01-01T20:54:15.070Z,99372.09
2018-01-01T20:56:50.139Z,99366.93
2018-01-01T20:59:24.870Z,99365.38
2018-01-01T21:01:59.790Z,99368.46
2018-01-01T21:04:34.398Z,99368.83
2018-01-01T21:07:09.649Z,99370.34
2018-01-01T21:09:44.426Z,99371.34
2018-01-01T21:12:19.213Z,99374.70
2018-01-01T21:14:54.380Z,99383.58
2018-01-01T21:17:29.065Z,99382.72
2018-01-01T21:20:03.856Z,99388.28
2018-01-01T21:22:38.631Z,99390.75
2018-01-01T21:25:13.991Z,99390.80
2018-01-01T21:27:48.923Z,99399.01
2018-01-01T21:30:24.187Z,99390.73
2018-01-01T21:32:58.865Z,99400.14
2018-01-01T21:35:34.217Z,99408.02
2018-01-01T21:38:09.226Z,99409.21
2018-01-01T21:40:44.174Z,99416.56
2018-01-01T21:43:19.061Z,99413.09
2018-01-01T21:45:54.299Z,99417.05
2018-01-01T21:48:28.706Z,99425.52
2018-01-01T21:51:03.862Z,99424.07
2018-01-01T21:53:38.249Z,99429.72
2018-01-01T21:56:13.316Z,99430.13
2018-01-01T21:58:48.644Z,99438.97
2018-01-01T22:01:23.498Z,99440.39
2018-01-01T22:03:58.418Z,99446.84
2018-01-01T22:06:33.405Z,99452.87
2018-01-01T22:09:08.270Z,99453.77
2018-01-01T22:11:42.862Z,99457.96
2018-01-01T22:14:17.822Z,99463.24
2018-01-01T22:16:52.723Z,99470.44
2018-01-01T22:19:27.503Z,99472.50
2018-01-01T22:22:02.251Z,99478.02
2018-01-01T22:24:37.233Z,99478.13
2018-01-01T22:27:12.398Z,99479.09
2018-01-01T22:29:47.165Z,99480.52
2018-01-01T22:32:22.062Z,99478.42
2018-01-01T22:34:56.992Z,99479.58
2018-01-01T22:37:32.228Z,99481.28
2018-01-01T22:40:07.057Z,99483.46
2018-01-01T22:42:42.406Z,99490.02
2018-01-01T22:45:17.388Z,99479.76
2018-01-01T22:47:52.330Z,99494.10
2018-01-01T22:50:27.686Z,99495.80
2018-01-01T22:53:02.946Z,99502.06
2018-01-01T22:55:38.055Z,99502.00
2018-01-01T22:58:13.231Z,99516.80
2018-01-01T23:00:48.083Z,99522.09
2018-01-01T23:03:23.133Z,99518.59
2018-01-01T23:05:57.843Z,99527.01
2018-01-01T23:08:32.287Z,99524.54
2018-01-01T23:11:07.483Z,99525.52
2018-01-01T23:13:42.314Z,99529.60
2018-01-01T23:16:17.131Z,99533.79
2018-01-01T23:18:52.199Z,99537.21
2018-01-01T23:21:26.836Z,99537.89
2018-01-01T23:24:01.568Z,99531.72
2018-01-01T23:26:36.414Z,99544.14
2018-01-01T23:29:11.346Z,99544.88
2018-01-01T23:31:46.338Z,99549.10
2018-01-01T23:34:20.995Z,99547.10
2018-01-01T23:36:55.895Z,99555.60
2018-01-01T23:39:30.669Z,99558.11
2018-01-01T23:42:05.331Z,99558.86
2018-01-01T23:44:40.514Z,99560.63
2018-01-01T23:47:15.374Z,99563.67
2018-01-01T23:49:49.976Z,99574.37
2018-01-01T23:52:25.178Z,99575.95
2018-01-01T23:54:59.950Z,99577.46
2018-01-01T23:57:34.662Z,99580.34
